sensor_id;sensor_type;location;lat;lon;timestamp;P1;durP1;ratioP1;P2;durP2;ratioP2
39924;SDS011;25592;49.986;11.618;2023-06-10T00:02:17;8.65;;;4.93;;
39924;SDS011;25592;49.986;11.618;2023-06-10T00:05:03;7.13;;;5.30;;
39924;SDS011;25592;49.986;11.618;2023-06-10T00:07:48;7.22;;;4.53;;
39924;SDS011;25592;49.986;11.618;2023-06-10T00:10:34;7.15;;;5.28;;
39924;SDS011;25592;49.986;11.618;2023-06-10T00:13:20;6.90;;;4.95;;
39924;SDS011;25592;49.986;11.618;2023-06-10T00:16:06;8.40;;;5.45;;
39924;SDS011;25592;49.986;11.618;2023-06-10T00:18:51;7.30;;;4.65;;
39924;SDS011;25592;49.986;11.618;2023-06-10T00:21:36;7.07;;;4.90;;
39924;SDS011;25592;49.986;11.618;2023-06-10T00:24:24;7.32;;;5.60;;
39924;SDS011;25592;49.986;11.618;2023-06-10T00:27:10;7.47;;;5.60;;
39924;SDS011;25592;49.986;11.618;2023-06-10T00:29:55;7.72;;;5.20;;
39924;SDS011;25592;49.986;11.618;2023-06-10T00:32:40;6.60;;;4.95;;
39924;SDS011;25592;49.986;11.618;2023-06-10T00:35:26;7.65;;;4.70;;
39924;SDS011;25592;49.986;11.618;2023-06-10T00:38:12;7.15;;;5.00;;
39924;SDS011;25592;49.986;11.618;2023-06-10T00:40:59;7.53;;;5.32;;
39924;SDS011;25592;49.986;11.618;2023-06-10T00:43:44;7.78;;;5.32;;
39924;SDS011;25592;49.986;11.618;2023-06-10T00:46:30;10.60;;;5.50;;
39924;SDS011;25592;49.986;11.618;2023-06-10T00:49:17;7.25;;;5.13;;
39924;SDS011;25592;49.986;11.618;2023-06-10T00:52:03;8.50;;;5.97;;
39924;SDS011;25592;49.986;11.618;2023-06-10T00:54:50;9.00;;;5.90;;
39924;SDS011;25592;49.986;11.618;2023-06-10T00:57:36;9.07;;;5.32;;
39924;SDS011;25592;49.986;11.618;2023-06-10T01:00:22;10.27;;;5.97;;
39924;SDS011;25592;49.986;11.618;2023-06-10T01:03:08;9.27;;;5.63;;
39924;SDS011;25592;49.986;11.618;2023-06-10T01:05:57;7.22;;;5.40;;
39924;SDS011;25592;49.986;11.618;2023-06-10T01:15:06;7.80;;;5.97;;
39924;SDS011;25592;49.986;11.618;2023-06-10T01:17:59;11.20;;;6.25;;
39924;SDS011;25592;49.986;11.618;2023-06-10T01:21:03;8.38;;;6.03;;
39924;SDS011;25592;49.986;11.618;2023-06-10T01:23:49;9.48;;;5.32;;
39924;SDS011;25592;49.986;11.618;2023-06-10T01:26:35;9.63;;;5.72;;
39924;SDS011;25592;49.986;11.618;2023-06-10T01:29:24;8.63;;;5.60;;
39924;SDS011;25592;49.986;11.618;2023-06-10T01:32:34;8.45;;;6.20;;
39924;SDS011;25592;49.986;11.618;2023-06-10T01:35:25;7.00;;;5.43;;
39924;SDS011;25592;49.986;11.618;2023-06-10T01:38:12;8.75;;;6.60;;
39924;SDS011;25592;49.986;11.618;2023-06-10T01:41:00;9.35;;;6.35;;
39924;SDS011;25592;49.986;11.618;2023-06-10T01:43:46;10.75;;;6.35;;
39924;SDS011;25592;49.986;11.618;2023-06-10T01:46:32;7.90;;;5.90;;
39924;SDS011;25592;49.986;11.618;2023-06-10T01:49:17;8.93;;;6.30;;
39924;SDS011;25592;49.986;11.618;2023-06-10T01:52:03;8.30;;;6.13;;
39924;SDS011;25592;49.986;11.618;2023-06-10T01:54:48;11.75;;;6.35;;
39924;SDS011;25592;49.986;11.618;2023-06-10T01:57:34;9.02;;;6.25;;
39924;SDS011;25592;49.986;11.618;2023-06-10T02:00:19;8.00;;;6.22;;
39924;SDS011;25592;49.986;11.618;2023-06-10T02:03:05;7.60;;;6.35;;
39924;SDS011;25592;49.986;11.618;2023-06-10T02:05:50;8.35;;;6.40;;
39924;SDS011;25592;49.986;11.618;2023-06-10T02:08:36;8.90;;;6.55;;
39924;SDS011;25592;49.986;11.618;2023-06-10T02:11:21;8.80;;;5.88;;
39924;SDS011;25592;49.986;11.618;2023-06-10T02:14:06;8.05;;;5.80;;
39924;SDS011;25592;49.986;11.618;2023-06-10T02:16:52;9.30;;;6.22;;
39924;SDS011;25592;49.986;11.618;2023-06-10T02:19:41;9.82;;;6.63;;
39924;SDS011;25592;49.986;11.618;2023-06-10T02:22:37;8.55;;;6.43;;
39924;SDS011;25592;49.986;11.618;2023-06-10T02:25:23;9.27;;;5.85;;
39924;SDS011;25592;49.986;11.618;2023-06-10T02:28:08;13.55;;;6.80;;
39924;SDS011;25592;49.986;11.618;2023-06-10T02:30:53;8.30;;;6.38;;
39924;SDS011;25592;49.986;11.618;2023-06-10T02:33:39;11.25;;;7.07;;
39924;SDS011;25592;49.986;11.618;2023-06-10T02:36:24;8.90;;;6.57;;
39924;SDS011;25592;49.986;11.618;2023-06-10T02:39:12;9.95;;;7.00;;
39924;SDS011;25592;49.986;11.618;2023-06-10T02:41:58;11.07;;;6.97;;
39924;SDS011;25592;49.986;11.618;2023-06-10T02:44:43;9.98;;;6.72;;
39924;SDS011;25592;49.986;11.618;2023-06-10T02:47:29;8.55;;;6.60;;
39924;SDS011;25592;49.986;11.618;2023-06-10T02:50:15;7.65;;;6.00;;
39924;SDS011;25592;49.986;11.618;2023-06-10T02:53:00;7.82;;;6.00;;
39924;SDS011;25592;49.986;11.618;2023-06-10T02:55:45;8.05;;;5.65;;
39924;SDS011;25592;49.986;11.618;2023-06-10T02:58:31;8.20;;;5.90;;
39924;SDS011;25592;49.986;11.618;2023-06-10T03:01:16;10.45;;;5.82;;
39924;SDS011;25592;49.986;11.618;2023-06-10T03:04:07;8.23;;;5.70;;
39924;SDS011;25592;49.986;11.618;2023-06-10T03:06:52;7.75;;;5.60;;
39924;SDS011;25592;49.986;11.618;2023-06-10T03:09:37;7.55;;;5.68;;
39924;SDS011;25592;49.986;11.618;2023-06-10T03:12:23;8.32;;;5.78;;
39924;SDS011;25592;49.986;11.618;2023-06-10T03:15:08;7.03;;;5.82;;
39924;SDS011;25592;49.986;11.618;2023-06-10T03:17:54;8.25;;;6.00;;
39924;SDS011;25592;49.986;11.618;2023-06-10T03:20:40;10.95;;;6.03;;
39924;SDS011;25592;49.986;11.618;2023-06-10T03:23:26;9.60;;;6.47;;
39924;SDS011;25592;49.986;11.618;2023-06-10T03:26:12;9.05;;;6.60;;
39924;SDS011;25592;49.986;11.618;2023-06-10T03:28:59;8.20;;;6.10;;
39924;SDS011;25592;49.986;11.618;2023-06-10T03:31:45;13.48;;;6.82;;
39924;SDS011;25592;49.986;11.618;2023-06-10T03:34:30;10.85;;;6.43;;
39924;SDS011;25592;49.986;11.618;2023-06-10T03:37:15;8.93;;;6.50;;
39924;SDS011;25592;49.986;11.618;2023-06-10T03:40:01;8.55;;;6.28;;
39924;SDS011;25592;49.986;11.618;2023-06-10T03:42:46;8.48;;;6.47;;
39924;SDS011;25592;49.986;11.618;2023-06-10T03:45:32;10.75;;;6.65;;
39924;SDS011;25592;49.986;11.618;2023-06-10T03:48:17;17.23;;;7.57;;
39924;SDS011;25592;49.986;11.618;2023-06-10T03:51:02;8.25;;;6.00;;
39924;SDS011;25592;49.986;11.618;2023-06-10T03:53:48;8.30;;;7.00;;
39924;SDS011;25592;49.986;11.618;2023-06-10T03:56:33;9.35;;;6.88;;
39924;SDS011;25592;49.986;11.618;2023-06-10T03:59:20;8.48;;;6.38;;
39924;SDS011;25592;49.986;11.618;2023-06-10T04:02:05;9.40;;;7.03;;
39924;SDS011;25592;49.986;11.618;2023-06-10T04:04:51;10.80;;;8.23;;
39924;SDS011;25592;49.986;11.618;2023-06-10T04:07:37;12.75;;;7.22;;
39924;SDS011;25592;49.986;11.618;2023-06-10T04:10:24;11.18;;;8.15;;
39924;SDS011;25592;49.986;11.618;2023-06-10T04:13:10;10.70;;;8.40;;
39924;SDS011;25592;49.986;11.618;2023-06-10T04:15:55;13.00;;;7.40;;
39924;SDS011;25592;49.986;11.618;2023-06-10T04:18:40;10.75;;;7.70;;
39924;SDS011;25592;49.986;11.618;2023-06-10T04:21:27;14.95;;;8.10;;
39924;SDS011;25592;49.986;11.618;2023-06-10T04:24:12;11.50;;;8.80;;
39924;SDS011;25592;49.986;11.618;2023-06-10T04:26:57;12.00;;;8.20;;
39924;SDS011;25592;49.986;11.618;2023-06-10T04:29:43;11.43;;;8.68;;
39924;SDS011;25592;49.986;11.618;2023-06-10T04:32:28;13.27;;;9.23;;
39924;SDS011;25592;49.986;11.618;2023-06-10T04:35:14;10.30;;;8.35;;
39924;SDS011;25592;49.986;11.618;2023-06-10T04:38:00;13.60;;;8.10;;
39924;SDS011;25592;49.986;11.618;2023-06-10T04:40:47;10.25;;;8.13;;
39924;SDS011;25592;49.986;11.618;2023-06-10T04:43:33;13.27;;;8.27;;
39924;SDS011;25592;49.986;11.618;2023-06-10T04:46:18;12.35;;;8.80;;
39924;SDS011;25592;49.986;11.618;2023-06-10T04:49:04;10.45;;;7.70;;
39924;SDS011;25592;49.986;11.618;2023-06-10T04:51:50;12.45;;;8.15;;
39924;SDS011;25592;49.986;11.618;2023-06-10T04:54:36;13.82;;;8.00;;
39924;SDS011;25592;49.986;11.618;2023-06-10T04:57:21;11.75;;;8.38;;
39924;SDS011;25592;49.986;11.618;2023-06-10T05:00:06;10.52;;;8.10;;
39924;SDS011;25592;49.986;11.618;2023-06-10T05:02:53;11.23;;;8.60;;
39924;SDS011;25592;49.986;11.618;2023-06-10T05:05:38;11.90;;;8.48;;
39924;SDS011;25592;49.986;11.618;2023-06-10T05:08:24;10.05;;;7.45;;
39924;SDS011;25592;49.986;11.618;2023-06-10T05:11:09;12.82;;;8.95;;
39924;SDS011;25592;49.986;11.618;2023-06-10T05:13:54;11.10;;;8.32;;
39924;SDS011;25592;49.986;11.618;2023-06-10T05:16:40;12.90;;;8.30;;
39924;SDS011;25592;49.986;11.618;2023-06-10T05:19:25;12.80;;;8.88;;
39924;SDS011;25592;49.986;11.618;2023-06-10T05:22:12;11.13;;;8.40;;
39924;SDS011;25592;49.986;11.618;2023-06-10T05:24:58;11.93;;;8.50;;
39924;SDS011;25592;49.986;11.618;2023-06-10T05:27:43;23.15;;;9.27;;
39924;SDS011;25592;49.986;11.618;2023-06-10T05:30:29;10.45;;;9.00;;
39924;SDS011;25592;49.986;11.618;2023-06-10T05:33:14;11.35;;;8.38;;
39924;SDS011;25592;49.986;11.618;2023-06-10T05:36:00;11.32;;;8.68;;
39924;SDS011;25592;49.986;11.618;2023-06-10T05:38:46;9.48;;;7.60;;
39924;SDS011;25592;49.986;11.618;2023-06-10T05:41:31;9.93;;;8.20;;
39924;SDS011;25592;49.986;11.618;2023-06-10T05:44:16;9.15;;;7.53;;
39924;SDS011;25592;49.986;11.618;2023-06-10T05:47:02;10.32;;;8.10;;
39924;SDS011;25592;49.986;11.618;2023-06-10T05:49:47;12.48;;;8.55;;
39924;SDS011;25592;49.986;11.618;2023-06-10T05:52:35;10.02;;;7.63;;
39924;SDS011;25592;49.986;11.618;2023-06-10T05:55:20;10.75;;;7.70;;
39924;SDS011;25592;49.986;11.618;2023-06-10T05:58:05;10.25;;;7.50;;
39924;SDS011;25592;49.986;11.618;2023-06-10T06:00:51;11.15;;;8.15;;
39924;SDS011;25592;49.986;11.618;2023-06-10T06:03:36;14.15;;;8.75;;
39924;SDS011;25592;49.986;11.618;2023-06-10T06:06:21;17.30;;;8.50;;
39924;SDS011;25592;49.986;11.618;2023-06-10T06:09:07;12.43;;;8.30;;
39924;SDS011;25592;49.986;11.618;2023-06-10T06:11:53;14.00;;;8.35;;
39924;SDS011;25592;49.986;11.618;2023-06-10T06:14:38;12.43;;;8.48;;
39924;SDS011;25592;49.986;11.618;2023-06-10T06:17:24;11.55;;;8.20;;
39924;SDS011;25592;49.986;11.618;2023-06-10T06:20:09;12.73;;;7.90;;
39924;SDS011;25592;49.986;11.618;2023-06-10T06:22:55;11.18;;;8.27;;
39924;SDS011;25592;49.986;11.618;2023-06-10T06:25:41;10.63;;;8.60;;
39924;SDS011;25592;49.986;11.618;2023-06-10T06:28:26;11.00;;;8.13;;
39924;SDS011;25592;49.986;11.618;2023-06-10T06:31:14;12.20;;;8.48;;
39924;SDS011;25592;49.986;11.618;2023-06-10T06:33:59;11.73;;;7.90;;
39924;SDS011;25592;49.986;11.618;2023-06-10T06:36:44;10.27;;;8.30;;
39924;SDS011;25592;49.986;11.618;2023-06-10T06:39:30;10.45;;;8.15;;
39924;SDS011;25592;49.986;11.618;2023-06-10T06:42:15;12.65;;;8.23;;
39924;SDS011;25592;49.986;11.618;2023-06-10T06:45:01;10.60;;;7.70;;
39924;SDS011;25592;49.986;11.618;2023-06-10T06:47:46;10.80;;;7.28;;
39924;SDS011;25592;49.986;11.618;2023-06-10T06:50:32;9.07;;;7.25;;
39924;SDS011;25592;49.986;11.618;2023-06-10T06:53:18;9.80;;;7.07;;
39924;SDS011;25592;49.986;11.618;2023-06-10T06:56:03;12.55;;;6.75;;
39924;SDS011;25592;49.986;11.618;2023-06-10T06:58:49;10.82;;;7.30;;
39924;SDS011;25592;49.986;11.618;2023-06-10T07:01:35;11.10;;;7.55;;
39924;SDS011;25592;49.986;11.618;2023-06-10T07:04:20;9.93;;;7.28;;
39924;SDS011;25592;49.986;11.618;2023-06-10T07:07:07;10.85;;;7.68;;
39924;SDS011;25592;49.986;11.618;2023-06-10T07:09:54;8.27;;;6.88;;
39924;SDS011;25592;49.986;11.618;2023-06-10T07:12:39;13.30;;;7.65;;
39924;SDS011;25592;49.986;11.618;2023-06-10T07:15:24;12.27;;;7.47;;
39924;SDS011;25592;49.986;11.618;2023-06-10T07:18:10;12.65;;;7.88;;
39924;SDS011;25592;49.986;11.618;2023-06-10T07:20:55;11.15;;;7.47;;
39924;SDS011;25592;49.986;11.618;2023-06-10T07:23:44;11.50;;;6.50;;
39924;SDS011;25592;49.986;11.618;2023-06-10T07:26:29;12.32;;;6.70;;
39924;SDS011;25592;49.986;11.618;2023-06-10T07:29:15;8.30;;;5.75;;
39924;SDS011;25592;49.986;11.618;2023-06-10T07:32:00;6.57;;;4.63;;
39924;SDS011;25592;49.986;11.618;2023-06-10T07:34:46;5.93;;;4.88;;
39924;SDS011;25592;49.986;11.618;2023-06-10T07:37:32;6.63;;;4.40;;
39924;SDS011;25592;49.986;11.618;2023-06-10T07:40:17;8.13;;;4.13;;
39924;SDS011;25592;49.986;11.618;2023-06-10T07:43:03;6.53;;;4.10;;
39924;SDS011;25592;49.986;11.618;2023-06-10T07:45:48;6.85;;;4.07;;
39924;SDS011;25592;49.986;11.618;2023-06-10T07:48:34;4.60;;;3.55;;
39924;SDS011;25592;49.986;11.618;2023-06-10T07:51:20;5.57;;;3.50;;
39924;SDS011;25592;49.986;11.618;2023-06-10T07:54:06;8.15;;;4.47;;
39924;SDS011;25592;49.986;11.618;2023-06-10T07:56:51;7.80;;;3.50;;
39924;SDS011;25592;49.986;11.618;2023-06-10T07:59:38;6.35;;;3.83;;
39924;SDS011;25592;49.986;11.618;2023-06-10T08:02:23;7.20;;;3.95;;
39924;SDS011;25592;49.986;11.618;2023-06-10T08:05:10;10.88;;;3.90;;
39924;SDS011;25592;49.986;11.618;2023-06-10T08:07:55;6.45;;;4.07;;
39924;SDS011;25592;49.986;11.618;2023-06-10T08:10:43;4.72;;;2.95;;
39924;SDS011;25592;49.986;11.618;2023-06-10T08:13:28;4.93;;;3.35;;
39924;SDS011;25592;49.986;11.618;2023-06-10T08:16:14;6.13;;;4.32;;
39924;SDS011;25592;49.986;11.618;2023-06-10T08:18:59;7.68;;;3.53;;
39924;SDS011;25592;49.986;11.618;2023-06-10T08:21:45;6.18;;;3.75;;
39924;SDS011;25592;49.986;11.618;2023-06-10T08:24:30;6.28;;;3.47;;
39924;SDS011;25592;49.986;11.618;2023-06-10T08:27:16;5.25;;;3.22;;
39924;SDS011;25592;49.986;11.618;2023-06-10T08:30:01;5.28;;;3.75;;
39924;SDS011;25592;49.986;11.618;2023-06-10T08:32:47;5.35;;;3.30;;
39924;SDS011;25592;49.986;11.618;2023-06-10T08:35:32;5.70;;;3.80;;
39924;SDS011;25592;49.986;11.618;2023-06-10T08:38:18;5.43;;;3.80;;
39924;SDS011;25592;49.986;11.618;2023-06-10T08:41:03;6.28;;;3.67;;
39924;SDS011;25592;49.986;11.618;2023-06-10T08:44:03;6.47;;;3.58;;
39924;SDS011;25592;49.986;11.618;2023-06-10T08:46:56;5.22;;;3.80;;
39924;SDS011;25592;49.986;11.618;2023-06-10T08:49:45;6.07;;;3.53;;
39924;SDS011;25592;49.986;11.618;2023-06-10T08:52:37;13.80;;;3.88;;
39924;SDS011;25592;49.986;11.618;2023-06-10T08:58:14;5.15;;;3.25;;
39924;SDS011;25592;49.986;11.618;2023-06-10T09:00:59;5.30;;;3.45;;
39924;SDS011;25592;49.986;11.618;2023-06-10T09:03:45;6.05;;;3.38;;
39924;SDS011;25592;49.986;11.618;2023-06-10T09:06:31;4.80;;;3.25;;
39924;SDS011;25592;49.986;11.618;2023-06-10T09:09:18;4.45;;;3.28;;
39924;SDS011;25592;49.986;11.618;2023-06-10T09:12:05;6.32;;;3.72;;
39924;SDS011;25592;49.986;11.618;2023-06-10T09:14:50;6.55;;;3.78;;
39924;SDS011;25592;49.986;11.618;2023-06-10T09:17:36;5.70;;;3.80;;
39924;SDS011;25592;49.986;11.618;2023-06-10T09:20:23;8.63;;;3.40;;
39924;SDS011;25592;49.986;11.618;2023-06-10T09:23:09;6.03;;;2.75;;
39924;SDS011;25592;49.986;11.618;2023-06-10T09:25:58;6.38;;;3.25;;
39924;SDS011;25592;49.986;11.618;2023-06-10T09:28:44;5.03;;;3.30;;
39924;SDS011;25592;49.986;11.618;2023-06-10T09:31:36;5.00;;;3.35;;
39924;SDS011;25592;49.986;11.618;2023-06-10T09:34:24;6.32;;;3.55;;
39924;SDS011;25592;49.986;11.618;2023-06-10T09:37:11;8.55;;;3.45;;
39924;SDS011;25592;49.986;11.618;2023-06-10T09:40:02;5.90;;;3.60;;
39924;SDS011;25592;49.986;11.618;2023-06-10T09:42:55;7.88;;;3.55;;
39924;SDS011;25592;49.986;11.618;2023-06-10T09:45:42;4.30;;;3.22;;
39924;SDS011;25592;49.986;11.618;2023-06-10T09:48:28;5.53;;;3.15;;
39924;SDS011;25592;49.986;11.618;2023-06-10T09:51:14;5.38;;;3.60;;
39924;SDS011;25592;49.986;11.618;2023-06-10T09:54:02;7.47;;;3.30;;
39924;SDS011;25592;49.986;11.618;2023-06-10T09:56:49;8.40;;;3.45;;
39924;SDS011;25592;49.986;11.618;2023-06-10T09:59:37;9.30;;;3.58;;
39924;SDS011;25592;49.986;11.618;2023-06-10T10:02:23;7.30;;;3.60;;
39924;SDS011;25592;49.986;11.618;2023-06-10T10:05:09;6.18;;;3.55;;
39924;SDS011;25592;49.986;11.618;2023-06-10T10:07:55;6.05;;;3.47;;
39924;SDS011;25592;49.986;11.618;2023-06-10T10:10:41;9.98;;;3.63;;
39924;SDS011;25592;49.986;11.618;2023-06-10T10:13:26;4.63;;;3.50;;
39924;SDS011;25592;49.986;11.618;2023-06-10T10:16:19;8.73;;;4.00;;
39924;SDS011;25592;49.986;11.618;2023-06-10T10:19:25;7.55;;;3.70;;
39924;SDS011;25592;49.986;11.618;2023-06-10T10:22:20;5.80;;;3.40;;
39924;SDS011;25592;49.986;11.618;2023-06-10T10:25:16;7.82;;;3.17;;
39924;SDS011;25592;49.986;11.618;2023-06-10T10:28:11;5.68;;;3.58;;
39924;SDS011;25592;49.986;11.618;2023-06-10T10:30:59;5.45;;;3.38;;
39924;SDS011;25592;49.986;11.618;2023-06-10T10:33:54;5.55;;;3.45;;
39924;SDS011;25592;49.986;11.618;2023-06-10T10:36:43;5.45;;;3.17;;
39924;SDS011;25592;49.986;11.618;2023-06-10T10:39:30;6.38;;;3.50;;
39924;SDS011;25592;49.986;11.618;2023-06-10T10:42:18;6.18;;;3.85;;
39924;SDS011;25592;49.986;11.618;2023-06-10T10:45:04;5.55;;;3.88;;
39924;SDS011;25592;49.986;11.618;2023-06-10T10:47:53;7.25;;;3.45;;
39924;SDS011;25592;49.986;11.618;2023-06-10T10:50:41;3.92;;;3.00;;
39924;SDS011;25592;49.986;11.618;2023-06-10T10:53:26;5.78;;;3.45;;
39924;SDS011;25592;49.986;11.618;2023-06-10T10:56:15;6.75;;;3.60;;
39924;SDS011;25592;49.986;11.618;2023-06-10T11:01:49;4.80;;;3.38;;
39924;SDS011;25592;49.986;11.618;2023-06-10T11:04:35;10.80;;;3.85;;
39924;SDS011;25592;49.986;11.618;2023-06-10T11:07:21;5.20;;;3.65;;
39924;SDS011;25592;49.986;11.618;2023-06-10T11:10:11;9.63;;;3.67;;
39924;SDS011;25592;49.986;11.618;2023-06-10T11:12:58;5.90;;;3.70;;
39924;SDS011;25592;49.986;11.618;2023-06-10T11:15:44;4.68;;;3.15;;
39924;SDS011;25592;49.986;11.618;2023-06-10T11:18:38;4.63;;;3.10;;
39924;SDS011;25592;49.986;11.618;2023-06-10T11:24:12;4.20;;;3.08;;
39924;SDS011;25592;49.986;11.618;2023-06-10T11:27:17;10.32;;;3.20;;
39924;SDS011;25592;49.986;11.618;2023-06-10T11:32:50;5.78;;;3.22;;
39924;SDS011;25592;49.986;11.618;2023-06-10T11:35:37;4.18;;;3.05;;
39924;SDS011;25592;49.986;11.618;2023-06-10T11:38:24;5.32;;;3.50;;
39924;SDS011;25592;49.986;11.618;2023-06-10T11:41:10;4.15;;;3.08;;
39924;SDS011;25592;49.986;11.618;2023-06-10T11:43:56;6.07;;;3.42;;
39924;SDS011;25592;49.986;11.618;2023-06-10T11:46:47;4.43;;;3.17;;
39924;SDS011;25592;49.986;11.618;2023-06-10T11:49:33;4.38;;;3.05;;
39924;SDS011;25592;49.986;11.618;2023-06-10T11:52:22;4.25;;;3.00;;
39924;SDS011;25592;49.986;11.618;2023-06-10T11:55:12;5.07;;;3.20;;
39924;SDS011;25592;49.986;11.618;2023-06-10T11:57:57;6.50;;;3.38;;
39924;SDS011;25592;49.986;11.618;2023-06-10T12:03:37;4.85;;;3.33;;
39924;SDS011;25592;49.986;11.618;2023-06-10T12:06:23;7.20;;;3.92;;
39924;SDS011;25592;49.986;11.618;2023-06-10T12:09:28;7.95;;;3.33;;
39924;SDS011;25592;49.986;11.618;2023-06-10T12:12:14;4.18;;;2.95;;
39924;SDS011;25592;49.986;11.618;2023-06-10T12:15:00;4.78;;;3.03;;
39924;SDS011;25592;49.986;11.618;2023-06-10T12:17:47;4.53;;;3.10;;
39924;SDS011;25592;49.986;11.618;2023-06-10T12:20:32;3.80;;;2.88;;
39924;SDS011;25592;49.986;11.618;2023-06-10T12:23:20;5.63;;;3.70;;
39924;SDS011;25592;49.986;11.618;2023-06-10T12:26:06;4.90;;;3.60;;
39924;SDS011;25592;49.986;11.618;2023-06-10T12:28:52;5.50;;;3.53;;
39924;SDS011;25592;49.986;11.618;2023-06-10T12:34:38;5.35;;;3.67;;
39924;SDS011;25592;49.986;11.618;2023-06-10T12:37:25;5.15;;;3.67;;
39924;SDS011;25592;49.986;11.618;2023-06-10T12:40:10;5.10;;;3.60;;
39924;SDS011;25592;49.986;11.618;2023-06-10T12:42:56;4.57;;;3.63;;
39924;SDS011;25592;49.986;11.618;2023-06-10T12:45:42;5.00;;;3.67;;
39924;SDS011;25592;49.986;11.618;2023-06-10T12:48:30;8.05;;;4.60;;
39924;SDS011;25592;49.986;11.618;2023-06-10T12:51:15;8.23;;;6.00;;
39924;SDS011;25592;49.986;11.618;2023-06-10T12:54:00;8.20;;;6.30;;
39924;SDS011;25592;49.986;11.618;2023-06-10T12:56:46;8.63;;;6.45;;
39924;SDS011;25592;49.986;11.618;2023-06-10T12:59:32;9.93;;;6.82;;
39924;SDS011;25592;49.986;11.618;2023-06-10T13:02:20;10.20;;;6.30;;
39924;SDS011;25592;49.986;11.618;2023-06-10T13:05:08;9.40;;;6.23;;
39924;SDS011;25592;49.986;11.618;2023-06-10T13:07:58;11.30;;;6.80;;
39924;SDS011;25592;49.986;11.618;2023-06-10T13:10:44;11.38;;;6.22;;
39924;SDS011;25592;49.986;11.618;2023-06-10T13:13:29;8.02;;;5.60;;
39924;SDS011;25592;49.986;11.618;2023-06-10T13:16:15;9.55;;;6.18;;
39924;SDS011;25592;49.986;11.618;2023-06-10T13:19:00;8.73;;;5.82;;
39924;SDS011;25592;49.986;11.618;2023-06-10T13:21:51;7.72;;;6.43;;
39924;SDS011;25592;49.986;11.618;2023-06-10T13:24:38;8.60;;;5.60;;
39924;SDS011;25592;49.986;11.618;2023-06-10T13:27:24;7.95;;;6.55;;
39924;SDS011;25592;49.986;11.618;2023-06-10T13:30:10;11.02;;;5.38;;
39924;SDS011;25592;49.986;11.618;2023-06-10T13:32:56;7.05;;;5.68;;
39924;SDS011;25592;49.986;11.618;2023-06-10T13:35:42;12.80;;;5.32;;
39924;SDS011;25592;49.986;11.618;2023-06-10T13:38:27;6.85;;;5.50;;
39924;SDS011;25592;49.986;11.618;2023-06-10T13:41:13;9.25;;;5.22;;
39924;SDS011;25592;49.986;11.618;2023-06-10T13:43:58;9.52;;;5.18;;
39924;SDS011;25592;49.986;11.618;2023-06-10T13:46:43;8.10;;;4.63;;
39924;SDS011;25592;49.986;11.618;2023-06-10T13:49:32;7.20;;;4.95;;
39924;SDS011;25592;49.986;11.618;2023-06-10T13:52:18;7.70;;;5.28;;
39924;SDS011;25592;49.986;11.618;2023-06-10T13:55:03;14.27;;;5.50;;
39924;SDS011;25592;49.986;11.618;2023-06-10T13:57:49;5.40;;;4.65;;
39924;SDS011;25592;49.986;11.618;2023-06-10T14:00:34;7.93;;;5.07;;
39924;SDS011;25592;49.986;11.618;2023-06-10T14:03:20;8.63;;;5.40;;
39924;SDS011;25592;49.986;11.618;2023-06-10T14:06:05;6.53;;;4.70;;
39924;SDS011;25592;49.986;11.618;2023-06-10T14:08:51;9.10;;;4.75;;
39924;SDS011;25592;49.986;11.618;2023-06-10T14:11:36;6.60;;;4.82;;
39924;SDS011;25592;49.986;11.618;2023-06-10T14:14:22;7.03;;;5.30;;
39924;SDS011;25592;49.986;11.618;2023-06-10T14:17:07;7.32;;;5.13;;
39924;SDS011;25592;49.986;11.618;2023-06-10T14:19:53;8.73;;;5.50;;
39924;SDS011;25592;49.986;11.618;2023-06-10T14:22:38;7.53;;;5.30;;
39924;SDS011;25592;49.986;11.618;2023-06-10T14:25:24;12.95;;;6.10;;
39924;SDS011;25592;49.986;11.618;2023-06-10T14:28:09;9.05;;;5.65;;
39924;SDS011;25592;49.986;11.618;2023-06-10T14:30:55;10.75;;;5.80;;
39924;SDS011;25592;49.986;11.618;2023-06-10T14:33:42;9.90;;;5.55;;
39924;SDS011;25592;49.986;11.618;2023-06-10T14:36:28;8.90;;;5.45;;
39924;SDS011;25592;49.986;11.618;2023-06-10T14:39:15;12.48;;;5.63;;
39924;SDS011;25592;49.986;11.618;2023-06-10T14:42:00;7.40;;;5.70;;
39924;SDS011;25592;49.986;11.618;2023-06-10T14:44:45;7.85;;;6.03;;
39924;SDS011;25592;49.986;11.618;2023-06-10T14:47:31;6.10;;;5.28;;
39924;SDS011;25592;49.986;11.618;2023-06-10T14:50:16;8.65;;;6.18;;
39924;SDS011;25592;49.986;11.618;2023-06-10T14:53:01;7.22;;;5.32;;
39924;SDS011;25592;49.986;11.618;2023-06-10T14:55:47;8.25;;;5.55;;
39924;SDS011;25592;49.986;11.618;2023-06-10T14:58:32;8.15;;;5.88;;
39924;SDS011;25592;49.986;11.618;2023-06-10T15:01:18;12.00;;;6.55;;
39924;SDS011;25592;49.986;11.618;2023-06-10T15:04:03;8.18;;;6.10;;
39924;SDS011;25592;49.986;11.618;2023-06-10T15:06:49;10.50;;;5.40;;
39924;SDS011;25592;49.986;11.618;2023-06-10T15:09:34;9.23;;;6.68;;
39924;SDS011;25592;49.986;11.618;2023-06-10T15:12:19;9.25;;;6.03;;
39924;SDS011;25592;49.986;11.618;2023-06-10T15:15:05;7.50;;;5.13;;
39924;SDS011;25592;49.986;11.618;2023-06-10T15:17:51;6.10;;;5.00;;
39924;SDS011;25592;49.986;11.618;2023-06-10T15:20:37;7.45;;;5.10;;
39924;SDS011;25592;49.986;11.618;2023-06-10T15:23:22;9.43;;;5.70;;
39924;SDS011;25592;49.986;11.618;2023-06-10T15:26:07;8.93;;;5.30;;
39924;SDS011;25592;49.986;11.618;2023-06-10T15:28:53;6.20;;;4.32;;
39924;SDS011;25592;49.986;11.618;2023-06-10T15:31:38;6.72;;;4.70;;
39924;SDS011;25592;49.986;11.618;2023-06-10T15:34:23;5.20;;;4.15;;
39924;SDS011;25592;49.986;11.618;2023-06-10T15:37:09;7.43;;;4.15;;
39924;SDS011;25592;49.986;11.618;2023-06-10T15:39:54;8.35;;;4.80;;
39924;SDS011;25592;49.986;11.618;2023-06-10T15:42:40;8.48;;;4.47;;
39924;SDS011;25592;49.986;11.618;2023-06-10T15:45:25;7.32;;;4.20;;
39924;SDS011;25592;49.986;11.618;2023-06-10T15:48:10;6.80;;;4.28;;
39924;SDS011;25592;49.986;11.618;2023-06-10T15:50:56;5.07;;;4.20;;
39924;SDS011;25592;49.986;11.618;2023-06-10T15:53:41;7.90;;;4.20;;
39924;SDS011;25592;49.986;11.618;2023-06-10T15:56:26;6.68;;;4.40;;
39924;SDS011;25592;49.986;11.618;2023-06-10T15:59:12;7.43;;;4.78;;
39924;SDS011;25592;49.986;11.618;2023-06-10T16:01:57;6.18;;;4.35;;
39924;SDS011;25592;49.986;11.618;2023-06-10T16:04:42;7.60;;;4.13;;
39924;SDS011;25592;49.986;11.618;2023-06-10T16:07:28;6.70;;;4.45;;
39924;SDS011;25592;49.986;11.618;2023-06-10T16:10:13;11.07;;;4.70;;
39924;SDS011;25592;49.986;11.618;2023-06-10T16:12:59;7.50;;;4.68;;
39924;SDS011;25592;49.986;11.618;2023-06-10T16:15:44;7.10;;;5.00;;
39924;SDS011;25592;49.986;11.618;2023-06-10T16:18:30;6.95;;;4.13;;
39924;SDS011;25592;49.986;11.618;2023-06-10T16:21:15;6.63;;;5.10;;
39924;SDS011;25592;49.986;11.618;2023-06-10T16:24:00;8.18;;;3.90;;
39924;SDS011;25592;49.986;11.618;2023-06-10T16:26:46;7.72;;;4.47;;
39924;SDS011;25592;49.986;11.618;2023-06-10T16:29:33;7.32;;;4.72;;
39924;SDS011;25592;49.986;11.618;2023-06-10T16:32:18;6.10;;;4.28;;
39924;SDS011;25592;49.986;11.618;2023-06-10T16:35:04;6.63;;;4.53;;
39924;SDS011;25592;49.986;11.618;2023-06-10T16:37:49;8.73;;;4.82;;
39924;SDS011;25592;49.986;11.618;2023-06-10T16:40:34;6.85;;;4.40;;
39924;SDS011;25592;49.986;11.618;2023-06-10T16:43:20;8.90;;;4.32;;
39924;SDS011;25592;49.986;11.618;2023-06-10T16:46:07;7.45;;;4.15;;
39924;SDS011;25592;49.986;11.618;2023-06-10T16:48:52;7.30;;;4.32;;